sensor_id;sensor_type;location;lat;lon;timestamp;P1;durP1;ratioP1;P2;durP2;ratioP2
56116;SDS011;41989;45.356;20.392;2023-04-25T00:01:20;26.98;;;20.20;;
56116;SDS011;41989;45.356;20.392;2023-04-25T00:03:47;25.75;;;19.83;;
56116;SDS011;41989;45.356;20.392;2023-04-25T00:06:13;26.63;;;21.60;;
56116;SDS011;41989;45.356;20.392;2023-04-25T00:08:39;24.90;;;20.42;;
56116;SDS011;41989;45.356;20.392;2023-04-25T00:11:05;24.23;;;20.98;;
56116;SDS011;41989;45.356;20.392;2023-04-25T00:13:32;29.58;;;21.02;;
56116;SDS011;41989;45.356;20.392;2023-04-25T00:15:58;29.15;;;22.25;;
56116;SDS011;41989;45.356;20.392;2023-04-25T00:18:25;25.52;;;20.92;;
56116;SDS011;41989;45.356;20.392;2023-04-25T00:20:53;25.48;;;21.70;;
56116;SDS011;41989;45.356;20.392;2023-04-25T00:23:20;34.72;;;22.70;;
56116;SDS011;41989;45.356;20.392;2023-04-25T00:25:47;24.60;;;21.95;;
56116;SDS011;41989;45.356;20.392;2023-04-25T00:28:13;27.05;;;22.35;;
56116;SDS011;41989;45.356;20.392;2023-04-25T00:30:40;25.40;;;22.73;;
56116;SDS011;41989;45.356;20.392;2023-04-25T00:33:06;26.67;;;22.23;;
56116;SDS011;41989;45.356;20.392;2023-04-25T00:35:32;25.42;;;22.05;;
56116;SDS011;41989;45.356;20.392;2023-04-25T00:37:59;28.92;;;23.10;;
56116;SDS011;41989;45.356;20.392;2023-04-25T00:40:25;26.98;;;23.75;;
56116;SDS011;41989;45.356;20.392;2023-04-25T00:42:51;32.10;;;23.65;;
56116;SDS011;41989;45.356;20.392;2023-04-25T00:45:18;33.67;;;26.98;;
56116;SDS011;41989;45.356;20.392;2023-04-25T00:47:44;33.03;;;26.60;;
56116;SDS011;41989;45.356;20.392;2023-04-25T00:50:11;35.08;;;26.13;;
56116;SDS011;41989;45.356;20.392;2023-04-25T00:52:40;33.05;;;28.35;;
56116;SDS011;41989;45.356;20.392;2023-04-25T00:55:07;33.50;;;27.20;;
56116;SDS011;41989;45.356;20.392;2023-04-25T00:57:34;39.47;;;29.90;;
56116;SDS011;41989;45.356;20.392;2023-04-25T01:00:00;37.78;;;29.27;;
56116;SDS011;41989;45.356;20.392;2023-04-25T01:02:26;41.45;;;31.45;;
56116;SDS011;41989;45.356;20.392;2023-04-25T01:04:53;38.28;;;30.10;;
56116;SDS011;41989;45.356;20.392;2023-04-25T01:07:19;40.20;;;31.15;;
56116;SDS011;41989;45.356;20.392;2023-04-25T01:09:46;41.33;;;32.75;;
56116;SDS011;41989;45.356;20.392;2023-04-25T01:12:12;42.53;;;33.17;;
56116;SDS011;41989;45.356;20.392;2023-04-25T01:14:39;40.35;;;33.85;;
56116;SDS011;41989;45.356;20.392;2023-04-25T01:17:05;43.97;;;35.97;;
56116;SDS011;41989;45.356;20.392;2023-04-25T01:19:32;41.88;;;33.60;;
56116;SDS011;41989;45.356;20.392;2023-04-25T01:21:58;41.85;;;34.85;;
56116;SDS011;41989;45.356;20.392;2023-04-25T01:24:25;42.85;;;34.38;;
56116;SDS011;41989;45.356;20.392;2023-04-25T01:26:52;44.40;;;36.00;;
56116;SDS011;41989;45.356;20.392;2023-04-25T01:29:21;44.63;;;34.60;;
56116;SDS011;41989;45.356;20.392;2023-04-25T01:31:47;47.13;;;35.92;;
56116;SDS011;41989;45.356;20.392;2023-04-25T01:34:13;46.20;;;36.33;;
56116;SDS011;41989;45.356;20.392;2023-04-25T01:36:40;51.13;;;37.85;;
56116;SDS011;41989;45.356;20.392;2023-04-25T01:39:06;45.65;;;36.55;;
56116;SDS011;41989;45.356;20.392;2023-04-25T01:41:32;50.38;;;36.83;;
56116;SDS011;41989;45.356;20.392;2023-04-25T01:44:02;50.55;;;38.97;;
56116;SDS011;41989;45.356;20.392;2023-04-25T01:46:28;51.38;;;39.72;;
56116;SDS011;41989;45.356;20.392;2023-04-25T01:48:54;58.05;;;43.40;;
56116;SDS011;41989;45.356;20.392;2023-04-25T01:51:20;57.38;;;43.60;;
56116;SDS011;41989;45.356;20.392;2023-04-25T01:53:46;54.92;;;42.17;;
56116;SDS011;41989;45.356;20.392;2023-04-25T01:56:13;59.15;;;44.22;;
56116;SDS011;41989;45.356;20.392;2023-04-25T01:58:39;62.00;;;45.08;;
56116;SDS011;41989;45.356;20.392;2023-04-25T02:01:05;59.53;;;43.53;;
56116;SDS011;41989;45.356;20.392;2023-04-25T02:03:31;64.05;;;46.55;;
56116;SDS011;41989;45.356;20.392;2023-04-25T02:06:00;67.85;;;45.45;;
56116;SDS011;41989;45.356;20.392;2023-04-25T02:08:26;68.55;;;47.28;;
56116;SDS011;41989;45.356;20.392;2023-04-25T02:10:52;64.93;;;46.30;;
56116;SDS011;41989;45.356;20.392;2023-04-25T02:13:18;60.58;;;44.20;;
56116;SDS011;41989;45.356;20.392;2023-04-25T02:15:44;66.90;;;46.75;;
56116;SDS011;41989;45.356;20.392;2023-04-25T02:18:13;62.55;;;45.58;;
56116;SDS011;41989;45.356;20.392;2023-04-25T02:20:41;63.63;;;45.40;;
56116;SDS011;41989;45.356;20.392;2023-04-25T02:23:07;60.63;;;44.78;;
56116;SDS011;41989;45.356;20.392;2023-04-25T02:25:33;55.85;;;40.30;;
56116;SDS011;41989;45.356;20.392;2023-04-25T02:27:59;57.65;;;42.15;;
56116;SDS011;41989;45.356;20.392;2023-04-25T02:30:25;56.10;;;39.75;;
56116;SDS011;41989;45.356;20.392;2023-04-25T02:32:51;55.60;;;40.92;;
56116;SDS011;41989;45.356;20.392;2023-04-25T02:35:17;48.78;;;35.45;;
56116;SDS011;41989;45.356;20.392;2023-04-25T02:37:44;50.63;;;38.35;;
56116;SDS011;41989;45.356;20.392;2023-04-25T02:40:13;49.60;;;37.72;;
56116;SDS011;41989;45.356;20.392;2023-04-25T02:42:39;50.40;;;35.28;;
56116;SDS011;41989;45.356;20.392;2023-04-25T02:45:05;48.83;;;35.95;;
56116;SDS011;41989;45.356;20.392;2023-04-25T02:47:31;45.92;;;32.40;;
56116;SDS011;41989;45.356;20.392;2023-04-25T02:49:57;41.80;;;31.55;;
56116;SDS011;41989;45.356;20.392;2023-04-25T02:52:24;38.92;;;32.08;;
56116;SDS011;41989;45.356;20.392;2023-04-25T02:54:50;42.20;;;32.17;;
56116;SDS011;41989;45.356;20.392;2023-04-25T02:57:16;41.05;;;32.17;;
56116;SDS011;41989;45.356;20.392;2023-04-25T02:59:42;40.72;;;32.35;;
56116;SDS011;41989;45.356;20.392;2023-04-25T03:02:09;40.65;;;29.88;;
56116;SDS011;41989;45.356;20.392;2023-04-25T03:04:35;38.20;;;29.80;;
56116;SDS011;41989;45.356;20.392;2023-04-25T03:07:01;36.83;;;30.23;;
56116;SDS011;41989;45.356;20.392;2023-04-25T03:09:30;40.83;;;28.95;;
56116;SDS011;41989;45.356;20.392;2023-04-25T03:11:56;36.60;;;28.90;;
56116;SDS011;41989;45.356;20.392;2023-04-25T03:14:22;32.22;;;26.65;;
56116;SDS011;41989;45.356;20.392;2023-04-25T03:16:48;32.42;;;26.05;;
56116;SDS011;41989;45.356;20.392;2023-04-25T03:19:14;27.35;;;23.30;;
56116;SDS011;41989;45.356;20.392;2023-04-25T03:21:43;29.67;;;24.40;;
56116;SDS011;41989;45.356;20.392;2023-04-25T03:24:10;27.27;;;21.65;;
56116;SDS011;41989;45.356;20.392;2023-04-25T03:26:36;27.63;;;22.10;;
56116;SDS011;41989;45.356;20.392;2023-04-25T03:29:02;28.33;;;21.17;;
56116;SDS011;41989;45.356;20.392;2023-04-25T03:31:29;26.48;;;21.58;;
56116;SDS011;41989;45.356;20.392;2023-04-25T03:33:55;26.30;;;22.02;;
56116;SDS011;41989;45.356;20.392;2023-04-25T03:36:21;26.42;;;21.27;;
56116;SDS011;41989;45.356;20.392;2023-04-25T03:38:47;27.15;;;22.00;;
56116;SDS011;41989;45.356;20.392;2023-04-25T03:41:13;30.95;;;22.90;;
56116;SDS011;41989;45.356;20.392;2023-04-25T03:43:39;24.95;;;21.67;;
56116;SDS011;41989;45.356;20.392;2023-04-25T03:46:05;22.92;;;19.38;;
56116;SDS011;41989;45.356;20.392;2023-04-25T03:48:32;26.55;;;21.70;;
56116;SDS011;41989;45.356;20.392;2023-04-25T03:50:58;30.25;;;22.92;;
56116;SDS011;41989;45.356;20.392;2023-04-25T03:53:24;25.08;;;20.90;;
56116;SDS011;41989;45.356;20.392;2023-04-25T03:55:50;29.13;;;22.17;;
56116;SDS011;41989;45.356;20.392;2023-04-25T03:58:17;26.42;;;21.45;;
56116;SDS011;41989;45.356;20.392;2023-04-25T04:00:43;28.52;;;24.40;;
56116;SDS011;41989;45.356;20.392;2023-04-25T04:03:09;29.02;;;22.60;;
56116;SDS011;41989;45.356;20.392;2023-04-25T04:05:36;26.38;;;21.02;;
56116;SDS011;41989;45.356;20.392;2023-04-25T04:08:02;20.88;;;17.25;;
56116;SDS011;41989;45.356;20.392;2023-04-25T04:10:28;19.33;;;16.77;;
56116;SDS011;41989;45.356;20.392;2023-04-25T04:12:54;17.67;;;15.30;;
56116;SDS011;41989;45.356;20.392;2023-04-25T04:15:21;17.50;;;14.18;;
56116;SDS011;41989;45.356;20.392;2023-04-25T04:17:48;19.08;;;13.32;;
56116;SDS011;41989;45.356;20.392;2023-04-25T04:20:14;19.38;;;14.45;;
56116;SDS011;41989;45.356;20.392;2023-04-25T04:22:40;16.65;;;13.40;;
56116;SDS011;41989;45.356;20.392;2023-04-25T04:25:06;15.98;;;13.05;;
56116;SDS011;41989;45.356;20.392;2023-04-25T04:27:33;17.23;;;13.02;;
56116;SDS011;41989;45.356;20.392;2023-04-25T04:29:59;17.55;;;13.93;;
56116;SDS011;41989;45.356;20.392;2023-04-25T04:32:26;16.02;;;13.25;;
56116;SDS011;41989;45.356;20.392;2023-04-25T04:34:53;15.88;;;11.80;;
56116;SDS011;41989;45.356;20.392;2023-04-25T04:37:20;13.07;;;10.60;;
56116;SDS011;41989;45.356;20.392;2023-04-25T04:39:46;11.13;;;9.40;;
56116;SDS011;41989;45.356;20.392;2023-04-25T04:42:13;11.88;;;9.95;;
56116;SDS011;41989;45.356;20.392;2023-04-25T04:44:39;17.30;;;14.75;;
56116;SDS011;41989;45.356;20.392;2023-04-25T04:47:05;19.38;;;17.30;;
56116;SDS011;41989;45.356;20.392;2023-04-25T04:49:31;16.42;;;14.68;;
56116;SDS011;41989;45.356;20.392;2023-04-25T04:51:57;124.53;;;85.15;;
56116;SDS011;41989;45.356;20.392;2023-04-25T04:54:25;75.47;;;62.95;;
56116;SDS011;41989;45.356;20.392;2023-04-25T04:56:52;16.63;;;13.93;;
56116;SDS011;41989;45.356;20.392;2023-04-25T04:59:18;203.90;;;79.25;;
56116;SDS011;41989;45.356;20.392;2023-04-25T05:01:44;290.73;;;112.95;;
56116;SDS011;41989;45.356;20.392;2023-04-25T05:04:11;146.93;;;85.45;;
56116;SDS011;41989;45.356;20.392;2023-04-25T05:06:37;19.45;;;15.05;;
56116;SDS011;41989;45.356;20.392;2023-04-25T05:09:04;16.65;;;13.73;;
56116;SDS011;41989;45.356;20.392;2023-04-25T05:11:30;11.52;;;10.20;;
56116;SDS011;41989;45.356;20.392;2023-04-25T05:13:56;12.07;;;9.25;;
56116;SDS011;41989;45.356;20.392;2023-04-25T05:16:22;11.18;;;9.90;;
56116;SDS011;41989;45.356;20.392;2023-04-25T05:18:58;12.93;;;9.60;;
56116;SDS011;41989;45.356;20.392;2023-04-25T05:21:24;335.95;;;109.43;;
56116;SDS011;41989;45.356;20.392;2023-04-25T05:23:50;135.27;;;87.55;;
56116;SDS011;41989;45.356;20.392;2023-04-25T05:26:16;24.40;;;20.67;;
56116;SDS011;41989;45.356;20.392;2023-04-25T05:28:42;18.00;;;14.43;;
56116;SDS011;41989;45.356;20.392;2023-04-25T05:31:11;13.05;;;9.65;;
56116;SDS011;41989;45.356;20.392;2023-04-25T05:33:37;15.57;;;12.88;;
56116;SDS011;41989;45.356;20.392;2023-04-25T05:36:03;11.25;;;9.15;;
56116;SDS011;41989;45.356;20.392;2023-04-25T05:38:30;10.10;;;7.97;;
56116;SDS011;41989;45.356;20.392;2023-04-25T05:40:56;325.02;;;121.18;;
56116;SDS011;41989;45.356;20.392;2023-04-25T05:43:24;134.10;;;63.22;;
56116;SDS011;41989;45.356;20.392;2023-04-25T05:45:50;29.48;;;18.15;;
56116;SDS011;41989;45.356;20.392;2023-04-25T05:48:16;9.10;;;6.95;;
56116;SDS011;41989;45.356;20.392;2023-04-25T05:50:43;8.43;;;7.07;;
56116;SDS011;41989;45.356;20.392;2023-04-25T05:53:09;8.00;;;6.72;;
56116;SDS011;41989;45.356;20.392;2023-04-25T05:55:35;10.73;;;6.35;;
56116;SDS011;41989;45.356;20.392;2023-04-25T05:58:01;190.60;;;60.20;;
56116;SDS011;41989;45.356;20.392;2023-04-25T06:00:27;155.57;;;45.38;;
56116;SDS011;41989;45.356;20.392;2023-04-25T06:02:53;92.95;;;37.75;;
56116;SDS011;41989;45.356;20.392;2023-04-25T06:05:20;13.05;;;7.18;;
56116;SDS011;41989;45.356;20.392;2023-04-25T06:07:46;9.48;;;6.70;;
56116;SDS011;41989;45.356;20.392;2023-04-25T06:10:12;8.82;;;6.50;;
56116;SDS011;41989;45.356;20.392;2023-04-25T06:12:41;9.10;;;5.72;;
56116;SDS011;41989;45.356;20.392;2023-04-25T06:15:10;21.00;;;10.00;;
56116;SDS011;41989;45.356;20.392;2023-04-25T06:17:36;10.63;;;6.07;;
56116;SDS011;41989;45.356;20.392;2023-04-25T06:20:02;20.27;;;10.48;;
56116;SDS011;41989;45.356;20.392;2023-04-25T06:22:29;44.45;;;15.63;;
56116;SDS011;41989;45.356;20.392;2023-04-25T06:25:01;47.15;;;24.98;;
56116;SDS011;41989;45.356;20.392;2023-04-25T06:27:29;32.70;;;21.85;;
56116;SDS011;41989;45.356;20.392;2023-04-25T06:29:55;11.70;;;7.97;;
56116;SDS011;41989;45.356;20.392;2023-04-25T06:32:21;9.05;;;5.78;;
56116;SDS011;41989;45.356;20.392;2023-04-25T06:34:47;6.55;;;5.30;;
56116;SDS011;41989;45.356;20.392;2023-04-25T06:37:13;6.47;;;5.53;;
56116;SDS011;41989;45.356;20.392;2023-04-25T06:39:39;6.30;;;4.95;;
56116;SDS011;41989;45.356;20.392;2023-04-25T06:42:05;8.02;;;5.28;;
56116;SDS011;41989;45.356;20.392;2023-04-25T06:44:32;6.22;;;4.60;;
56116;SDS011;41989;45.356;20.392;2023-04-25T06:46:58;7.72;;;5.60;;
56116;SDS011;41989;45.356;20.392;2023-04-25T06:49:24;5.57;;;4.82;;
56116;SDS011;41989;45.356;20.392;2023-04-25T06:51:50;7.75;;;5.40;;
56116;SDS011;41989;45.356;20.392;2023-04-25T06:54:16;38.15;;;18.77;;
56116;SDS011;41989;45.356;20.392;2023-04-25T06:56:42;70.35;;;54.40;;
56116;SDS011;41989;45.356;20.392;2023-04-25T06:59:08;155.32;;;123.28;;
56116;SDS011;41989;45.356;20.392;2023-04-25T07:01:34;54.47;;;29.40;;
56116;SDS011;41989;45.356;20.392;2023-04-25T07:04:00;58.65;;;30.42;;
56116;SDS011;41989;45.356;20.392;2023-04-25T07:06:27;39.90;;;20.10;;
56116;SDS011;41989;45.356;20.392;2023-04-25T07:08:53;9.82;;;5.85;;
56116;SDS011;41989;45.356;20.392;2023-04-25T07:11:20;9.68;;;6.43;;
56116;SDS011;41989;45.356;20.392;2023-04-25T07:13:46;8.00;;;5.68;;
56116;SDS011;41989;45.356;20.392;2023-04-25T07:16:12;10.98;;;5.72;;
56116;SDS011;41989;45.356;20.392;2023-04-25T07:18:38;8.38;;;5.60;;
56116;SDS011;41989;45.356;20.392;2023-04-25T07:21:05;9.02;;;6.65;;
56116;SDS011;41989;45.356;20.392;2023-04-25T07:23:31;110.28;;;51.58;;
56116;SDS011;41989;45.356;20.392;2023-04-25T07:25:57;159.65;;;45.10;;
56116;SDS011;41989;45.356;20.392;2023-04-25T07:28:23;244.65;;;80.80;;
56116;SDS011;41989;45.356;20.392;2023-04-25T07:30:49;121.50;;;50.95;;
56116;SDS011;41989;45.356;20.392;2023-04-25T07:33:15;20.92;;;10.57;;
56116;SDS011;41989;45.356;20.392;2023-04-25T07:35:41;8.85;;;5.03;;
56116;SDS011;41989;45.356;20.392;2023-04-25T07:38:07;9.05;;;5.93;;
56116;SDS011;41989;45.356;20.392;2023-04-25T07:40:35;8.90;;;6.70;;
56116;SDS011;41989;45.356;20.392;2023-04-25T07:43:01;6.93;;;5.28;;
56116;SDS011;41989;45.356;20.392;2023-04-25T07:45:27;6.63;;;5.38;;
56116;SDS011;41989;45.356;20.392;2023-04-25T07:47:55;6.60;;;4.97;;
56116;SDS011;41989;45.356;20.392;2023-04-25T07:50:22;10.27;;;5.32;;
56116;SDS011;41989;45.356;20.392;2023-04-25T07:52:48;5.82;;;4.22;;
56116;SDS011;41989;45.356;20.392;2023-04-25T07:55:14;7.10;;;5.20;;
56116;SDS011;41989;45.356;20.392;2023-04-25T07:57:41;5.57;;;4.07;;
56116;SDS011;41989;45.356;20.392;2023-04-25T08:00:07;43.55;;;19.00;;
56116;SDS011;41989;45.356;20.392;2023-04-25T08:02:36;7.63;;;6.00;;
56116;SDS011;41989;45.356;20.392;2023-04-25T08:05:03;6.10;;;4.82;;
56116;SDS011;41989;45.356;20.392;2023-04-25T08:07:29;5.10;;;4.18;;
56116;SDS011;41989;45.356;20.392;2023-04-25T08:09:55;7.30;;;4.50;;
56116;SDS011;41989;45.356;20.392;2023-04-25T08:12:21;6.05;;;3.97;;
56116;SDS011;41989;45.356;20.392;2023-04-25T08:14:47;5.35;;;4.40;;
56116;SDS011;41989;45.356;20.392;2023-04-25T08:17:13;5.90;;;4.25;;
56116;SDS011;41989;45.356;20.392;2023-04-25T08:19:40;5.07;;;4.00;;
56116;SDS011;41989;45.356;20.392;2023-04-25T08:22:06;6.20;;;4.07;;
56116;SDS011;41989;45.356;20.392;2023-04-25T08:24:32;7.18;;;3.65;;
56116;SDS011;41989;45.356;20.392;2023-04-25T08:26:58;6.60;;;4.38;;
56116;SDS011;41989;45.356;20.392;2023-04-25T08:29:25;7.10;;;4.45;;
56116;SDS011;41989;45.356;20.392;2023-04-25T08:31:53;7.40;;;4.13;;
56116;SDS011;41989;45.356;20.392;2023-04-25T08:34:19;5.35;;;3.92;;
56116;SDS011;41989;45.356;20.392;2023-04-25T08:36:45;31.55;;;14.32;;
56116;SDS011;41989;45.356;20.392;2023-04-25T08:39:11;32.65;;;10.65;;
56116;SDS011;41989;45.356;20.392;2023-04-25T08:41:38;9.95;;;5.13;;
56116;SDS011;41989;45.356;20.392;2023-04-25T08:44:05;8.95;;;5.22;;
56116;SDS011;41989;45.356;20.392;2023-04-25T08:46:32;5.68;;;4.20;;
56116;SDS011;41989;45.356;20.392;2023-04-25T08:49:00;5.18;;;3.85;;
56116;SDS011;41989;45.356;20.392;2023-04-25T08:51:27;5.45;;;3.67;;
56116;SDS011;41989;45.356;20.392;2023-04-25T08:53:56;4.22;;;3.50;;
56116;SDS011;41989;45.356;20.392;2023-04-25T08:56:27;6.22;;;3.80;;
56116;SDS011;41989;45.356;20.392;2023-04-25T08:58:54;6.38;;;3.90;;
56116;SDS011;41989;45.356;20.392;2023-04-25T09:01:20;7.60;;;3.85;;
56116;SDS011;41989;45.356;20.392;2023-04-25T09:03:46;5.15;;;3.72;;
56116;SDS011;41989;45.356;20.392;2023-04-25T09:06:13;4.55;;;3.47;;
56116;SDS011;41989;45.356;20.392;2023-04-25T09:08:41;7.07;;;3.58;;
56116;SDS011;41989;45.356;20.392;2023-04-25T09:11:07;6.18;;;3.33;;
56116;SDS011;41989;45.356;20.392;2023-04-25T09:13:33;5.47;;;4.07;;
56116;SDS011;41989;45.356;20.392;2023-04-25T09:15:59;4.55;;;3.70;;
56116;SDS011;41989;45.356;20.392;2023-04-25T09:18:26;8.35;;;3.40;;
56116;SDS011;41989;45.356;20.392;2023-04-25T09:20:53;15.45;;;6.25;;
56116;SDS011;41989;45.356;20.392;2023-04-25T09:23:20;179.13;;;63.03;;
56116;SDS011;41989;45.356;20.392;2023-04-25T09:25:47;6.65;;;3.15;;
56116;SDS011;41989;45.356;20.392;2023-04-25T09:28:13;7.13;;;3.33;;
56116;SDS011;41989;45.356;20.392;2023-04-25T09:30:39;7.03;;;3.40;;
56116;SDS011;41989;45.356;20.392;2023-04-25T09:33:07;6.47;;;3.28;;
56116;SDS011;41989;45.356;20.392;2023-04-25T09:35:40;5.03;;;3.55;;
56116;SDS011;41989;45.356;20.392;2023-04-25T09:38:15;5.60;;;3.20;;
56116;SDS011;41989;45.356;20.392;2023-04-25T09:40:45;4.20;;;3.05;;
56116;SDS011;41989;45.356;20.392;2023-04-25T09:43:21;4.03;;;3.40;;
56116;SDS011;41989;45.356;20.392;2023-04-25T09:45:51;5.43;;;3.05;;
56116;SDS011;41989;45.356;20.392;2023-04-25T09:48:19;5.93;;;3.67;;
56116;SDS011;41989;45.356;20.392;2023-04-25T09:50:51;4.95;;;3.60;;
56116;SDS011;41989;45.356;20.392;2023-04-25T09:53:29;4.03;;;2.95;;
56116;SDS011;41989;45.356;20.392;2023-04-25T09:55:57;7.28;;;3.55;;
56116;SDS011;41989;45.356;20.392;2023-04-25T09:58:25;4.93;;;3.78;;
56116;SDS011;41989;45.356;20.392;2023-04-25T10:00:56;5.15;;;2.80;;
56116;SDS011;41989;45.356;20.392;2023-04-25T10:03:24;4.35;;;2.78;;
56116;SDS011;41989;45.356;20.392;2023-04-25T10:05:51;3.30;;;2.70;;
56116;SDS011;41989;45.356;20.392;2023-04-25T10:08:18;5.15;;;2.80;;
56116;SDS011;41989;45.356;20.392;2023-04-25T10:10:45;6.03;;;2.63;;
56116;SDS011;41989;45.356;20.392;2023-04-25T10:13:12;3.53;;;3.03;;
56116;SDS011;41989;45.356;20.392;2023-04-25T10:15:39;3.80;;;2.95;;
56116;SDS011;41989;45.356;20.392;2023-04-25T10:18:06;3.17;;;2.55;;
56116;SDS011;41989;45.356;20.392;2023-04-25T10:20:32;4.35;;;2.67;;
56116;SDS011;41989;45.356;20.392;2023-04-25T10:23:03;4.25;;;2.58;;
56116;SDS011;41989;45.356;20.392;2023-04-25T10:25:29;3.10;;;2.60;;
56116;SDS011;41989;45.356;20.392;2023-04-25T10:27:56;6.07;;;3.10;;
56116;SDS011;41989;45.356;20.392;2023-04-25T10:30:22;4.55;;;2.78;;
56116;SDS011;41989;45.356;20.392;2023-04-25T10:32:48;4.10;;;2.38;;
56116;SDS011;41989;45.356;20.392;2023-04-25T10:35:19;6.13;;;3.22;;
56116;SDS011;41989;45.356;20.392;2023-04-25T10:38:05;5.47;;;2.95;;
56116;SDS011;41989;45.356;20.392;2023-04-25T10:40:34;10.02;;;5.70;;
56116;SDS011;41989;45.356;20.392;2023-04-25T10:43:43;14.82;;;7.50;;
56116;SDS011;41989;45.356;20.392;2023-04-25T10:45:52;10.10;;;5.03;;
56116;SDS011;41989;45.356;20.392;2023-04-25T10:48:25;3.83;;;2.45;;
56116;SDS011;41989;45.356;20.392;2023-04-25T10:51:10;5.93;;;2.70;;
56116;SDS011;41989;45.356;20.392;2023-04-25T10:53:36;3.60;;;2.47;;
56116;SDS011;41989;45.356;20.392;2023-04-25T10:56:21;4.20;;;2.47;;
56116;SDS011;41989;45.356;20.392;2023-04-25T10:58:48;4.97;;;3.20;;
56116;SDS011;41989;45.356;20.392;2023-04-25T11:01:15;5.13;;;3.33;;
56116;SDS011;41989;45.356;20.392;2023-04-25T11:03:42;6.07;;;3.78;;
56116;SDS011;41989;45.356;20.392;2023-04-25T11:06:33;4.60;;;2.40;;
56116;SDS011;41989;45.356;20.392;2023-04-25T11:08:54;4.75;;;2.90;;
56116;SDS011;41989;45.356;20.392;2023-04-25T11:11:21;5.65;;;2.47;;
56116;SDS011;41989;45.356;20.392;2023-04-25T11:13:47;4.20;;;2.60;;
56116;SDS011;41989;45.356;20.392;2023-04-25T11:16:14;4.32;;;2.33;;
56116;SDS011;41989;45.356;20.392;2023-04-25T11:18:41;5.88;;;2.90;;
56116;SDS011;41989;45.356;20.392;2023-04-25T11:21:07;4.63;;;2.33;;
56116;SDS011;41989;45.356;20.392;2023-04-25T11:23:36;9.93;;;2.70;;
56116;SDS011;41989;45.356;20.392;2023-04-25T11:26:03;6.03;;;2.63;;
56116;SDS011;41989;45.356;20.392;2023-04-25T11:28:29;4.90;;;2.90;;
56116;SDS011;41989;45.356;20.392;2023-04-25T11:30:55;4.65;;;2.53;;
56116;SDS011;41989;45.356;20.392;2023-04-25T11:33:25;7.45;;;3.10;;
56116;SDS011;41989;45.356;20.392;2023-04-25T11:35:54;4.72;;;2.83;;
56116;SDS011;41989;45.356;20.392;2023-04-25T11:38:21;3.60;;;2.30;;
56116;SDS011;41989;45.356;20.392;2023-04-25T11:40:51;6.13;;;3.00;;
56116;SDS011;41989;45.356;20.392;2023-04-25T11:43:20;7.38;;;3.90;;
56116;SDS011;41989;45.356;20.392;2023-04-25T11:45:47;6.63;;;3.45;;
56116;SDS011;41989;45.356;20.392;2023-04-25T11:48:13;4.35;;;2.53;;
56116;SDS011;41989;45.356;20.392;2023-04-25T11:50:39;4.70;;;2.40;;
56116;SDS011;41989;45.356;20.392;2023-04-25T11:53:06;5.57;;;3.03;;
56116;SDS011;41989;45.356;20.392;2023-04-25T11:55:33;4.63;;;2.20;;
56116;SDS011;41989;45.356;20.392;2023-04-25T11:58:01;4.72;;;2.67;;
56116;SDS011;41989;45.356;20.392;2023-04-25T12:00:27;4.50;;;2.17;;
56116;SDS011;41989;45.356;20.392;2023-04-25T12:02:53;3.65;;;1.85;;
56116;SDS011;41989;45.356;20.392;2023-04-25T12:05:20;8.68;;;3.63;;
56116;SDS011;41989;45.356;20.392;2023-04-25T12:07:49;4.83;;;2.97;;
56116;SDS011;41989;45.356;20.392;2023-04-25T12:10:16;7.78;;;3.70;;
56116;SDS011;41989;45.356;20.392;2023-04-25T12:12:43;5.22;;;2.78;;
56116;SDS011;41989;45.356;20.392;2023-04-25T12:15:10;6.15;;;2.53;;
56116;SDS011;41989;45.356;20.392;2023-04-25T12:17:38;4.03;;;2.30;;
56116;SDS011;41989;45.356;20.392;2023-04-25T12:20:08;4.28;;;2.60;;
56116;SDS011;41989;45.356;20.392;2023-04-25T12:25:01;6.13;;;2.15;;
56116;SDS011;41989;45.356;20.392;2023-04-25T12:27:30;4.97;;;2.00;;
56116;SDS011;41989;45.356;20.392;2023-04-25T12:29:56;7.68;;;4.10;;
56116;SDS011;41989;45.356;20.392;2023-04-25T12:32:23;4.78;;;3.15;;
56116;SDS011;41989;45.356;20.392;2023-04-25T12:34:50;4.15;;;2.70;;
56116;SDS011;41989;45.356;20.392;2023-04-25T12:37:19;3.85;;;2.30;;
56116;SDS011;41989;45.356;20.392;2023-04-25T12:39:45;13.32;;;7.85;;
56116;SDS011;41989;45.356;20.392;2023-04-25T12:42:12;49.33;;;29.95;;
56116;SDS011;41989;45.356;20.392;2023-04-25T12:44:38;64.43;;;42.50;;
56116;SDS011;41989;45.356;20.392;2023-04-25T12:47:04;7.15;;;4.15;;
56116;SDS011;41989;45.356;20.392;2023-04-25T12:49:31;5.28;;;2.80;;
56116;SDS011;41989;45.356;20.392;2023-04-25T12:51:57;4.72;;;1.98;;
56116;SDS011;41989;45.356;20.392;2023-04-25T12:54:26;4.82;;;2.10;;
56116;SDS011;41989;45.356;20.392;2023-04-25T12:56:52;3.45;;;2.40;;
56116;SDS011;41989;45.356;20.392;2023-04-25T12:59:18;3.80;;;2.10;;
56116;SDS011;41989;45.356;20.392;2023-04-25T13:01:45;3.15;;;2.05;;
56116;SDS011;41989;45.356;20.392;2023-04-25T13:04:11;2.47;;;1.17;;
56116;SDS011;41989;45.356;20.392;2023-04-25T13:06:38;2.80;;;1.65;;
56116;SDS011;41989;45.356;20.392;2023-04-25T13:09:04;5.65;;;1.60;;
56116;SDS011;41989;45.356;20.392;2023-04-25T13:11:31;4.43;;;1.30;;
56116;SDS011;41989;45.356;20.392;2023-04-25T13:13:57;7.65;;;2.03;;
56116;SDS011;41989;45.356;20.392;2023-04-25T13:16:23;2.78;;;1.60;;
56116;SDS011;41989;45.356;20.392;2023-04-25T13:18:49;2.22;;;1.40;;
56116;SDS011;41989;45.356;20.392;2023-04-25T13:21:16;2.88;;;1.13;;
56116;SDS011;41989;45.356;20.392;2023-04-25T13:23:42;4.22;;;1.75;;
56116;SDS011;41989;45.356;20.392;2023-04-25T13:26:09;2.78;;;1.27;;
56116;SDS011;41989;45.356;20.392;2023-04-25T13:28:35;5.18;;;1.75;;
56116;SDS011;41989;45.356;20.392;2023-04-25T13:31:01;3.17;;;1.60;;
56116;SDS011;41989;45.356;20.392;2023-04-25T13:33:28;4.18;;;1.90;;
56116;SDS011;41989;45.356;20.392;2023-04-25T13:35:54;2.75;;;1.88;;
56116;SDS011;41989;45.356;20.392;2023-04-25T13:38:25;3.92;;;2.17;;
56116;SDS011;41989;45.356;20.392;2023-04-25T13:40:51;2.97;;;1.67;;
56116;SDS011;41989;45.356;20.392;2023-04-25T13:43:21;4.45;;;2.00;;
56116;SDS011;41989;45.356;20.392;2023-04-25T13:45:50;2.72;;;1.88;;
56116;SDS011;41989;45.356;20.392;2023-04-25T13:48:17;4.93;;;2.05;;
56116;SDS011;41989;45.356;20.392;2023-04-25T13:50:43;4.03;;;1.70;;
56116;SDS011;41989;45.356;20.392;2023-04-25T13:53:10;3.33;;;2.33;;
56116;SDS011;41989;45.356;20.392;2023-04-25T13:55:36;3.15;;;2.38;;
56116;SDS011;41989;45.356;20.392;2023-04-25T13:58:03;2.95;;;2.03;;
56116;SDS011;41989;45.356;20.392;2023-04-25T14:00:33;2.85;;;1.92;;
56116;SDS011;41989;45.356;20.392;2023-04-25T14:03:00;3.17;;;2.00;;
56116;SDS011;41989;45.356;20.392;2023-04-25T14:05:29;4.50;;;2.10;;
56116;SDS011;41989;45.356;20.392;2023-04-25T14:07:56;7.85;;;2.10;;
56116;SDS011;41989;45.356;20.392;2023-04-25T14:10:22;3.22;;;1.88;;
56116;SDS011;41989;45.356;20.392;2023-04-25T14:12:48;4.40;;;2.08;;
56116;SDS011;41989;45.356;20.392;2023-04-25T14:15:15;2.50;;;2.00;;
56116;SDS011;41989;45.356;20.392;2023-04-25T14:17:41;3.05;;;2.00;;
56116;SDS011;41989;45.356;20.392;2023-04-25T14:20:08;3.95;;;2.28;;
56116;SDS011;41989;45.356;20.392;2023-04-25T14:22:35;2.85;;;2.20;;